This is the latest recevied weather packets stored in our database for station/object DG7FDL-7. If no packets are shown the sender has not sent any weather packets the latest 10 day(s).
| Time | Temp. | Humidity | Pressure | Rain* | Wind** | Luminosity | Snow |
|---|---|---|---|---|---|---|---|
| 1788133791 | 61° F | 87% | 760.7 mmHg | - | - | - | - |
| 1788132891 | 62° F | 82% | 760.7 mmHg | - | - | - | - |
| 1788131991 | 62° F | 84% | 760.9 mmHg | - | - | - | - |
| 1788131091 | 62° F | 82% | 761 mmHg | - | - | - | - |
| 1788130191 | 62° F | 82% | 761 mmHg | - | - | - | - |
| 1788129285 | 61° F | 84% | 761.2 mmHg | - | - | - | - |
| 1788128384 | 62° F | 82% | 761.1 mmHg | - | - | - | - |
| 1788127484 | 62° F | 82% | 761.2 mmHg | - | - | - | - |
| 1788126584 | 62° F | 81% | 761.3 mmHg | - | - | - | - |
| 1788125684 | 63° F | 80% | 761.4 mmHg | - | - | - | - |
| 1788124784 | 63° F | 75% | 761.3 mmHg | - | - | - | - |
| 1788123884 | 64° F | 75% | 761.4 mmHg | - | - | - | - |
| 1788122984 | 64° F | 75% | 761.4 mmHg | - | - | - | - |
| 1788122084 | 65° F | 72% | 761.5 mmHg | - | - | - | - |
| 1788121184 | 65° F | 72% | 761.4 mmHg | - | - | - | - |
| 1788120284 | 65° F | 72% | 761.4 mmHg | - | - | - | - |
| 1788119384 | 66° F | 70% | 761.5 mmHg | - | - | - | - |
| 1788118484 | 66° F | 68% | 761.3 mmHg | - | - | - | - |
| 1788117584 | 67° F | 67% | 761.3 mmHg | - | - | - | - |
| 1788114755 | 68° F | 65% | 761.2 mmHg | - | - | - | - |
| 1788108928 | 74° F | 49% | 760.8 mmHg | - | - | - | - |
| 1788108028 | 73° F | 49% | 760.8 mmHg | - | - | - | - |
| 1788107128 | 73° F | 49% | 760.7 mmHg | - | - | - | - |
| 1788106228 | 73° F | 49% | 760.8 mmHg | - | - | - | - |
| 1788104427 | 74° F | 48% | 760.8 mmHg | - | - | - | - |
* Rain since midnight (hover to see other rain measurements)
** Current wind speed in m/s (hover to see current wind gust speed)